sensor_id;sensor_type;location;lat;lon;timestamp;P1;durP1;ratioP1;P2;durP2;ratioP2
71294;SDS011;59080;31.686;73.862;2022-09-09T14:26:36;101.90;;;45.97;;
71294;SDS011;59080;31.686;73.862;2022-09-09T14:29:28;79.45;;;46.80;;
71294;SDS011;59080;31.686;73.862;2022-09-09T14:32:29;78.22;;;47.60;;
71294;SDS011;59080;31.686;73.862;2022-09-09T14:35:10;92.13;;;49.13;;
71294;SDS011;59080;31.686;73.862;2022-09-09T14:37:42;102.18;;;48.95;;
71294;SDS011;59080;31.686;73.862;2022-09-09T14:40:13;94.13;;;48.15;;
71294;SDS011;59080;31.686;73.862;2022-09-09T14:42:45;91.05;;;49.20;;
71294;SDS011;59080;31.686;73.862;2022-09-09T14:45:13;83.53;;;47.72;;
71294;SDS011;59080;31.686;73.862;2022-09-09T14:47:41;87.97;;;48.17;;
71294;SDS011;59080;31.686;73.862;2022-09-09T14:50:10;79.40;;;48.63;;
71294;SDS011;59080;31.686;73.862;2022-09-09T14:52:38;76.70;;;50.35;;
71294;SDS011;59080;31.686;73.862;2022-09-09T14:55:06;81.90;;;52.25;;
71294;SDS011;59080;31.686;73.862;2022-09-09T14:57:35;89.78;;;52.63;;
71294;SDS011;59080;31.686;73.862;2022-09-09T15:00:06;88.05;;;56.08;;
71294;SDS011;59080;31.686;73.862;2022-09-09T15:02:36;82.75;;;54.45;;
71294;SDS011;59080;31.686;73.862;2022-09-09T15:05:05;85.20;;;54.63;;
71294;SDS011;59080;31.686;73.862;2022-09-09T15:07:35;82.70;;;54.22;;
71294;SDS011;59080;31.686;73.862;2022-09-09T15:10:05;98.28;;;60.63;;
71294;SDS011;59080;31.686;73.862;2022-09-09T15:13:14;101.93;;;61.08;;
71294;SDS011;59080;31.686;73.862;2022-09-09T15:16:08;107.35;;;61.40;;
71294;SDS011;59080;31.686;73.862;2022-09-09T15:18:39;101.63;;;61.33;;
71294;SDS011;59080;31.686;73.862;2022-09-09T15:21:10;94.28;;;58.95;;
71294;SDS011;59080;31.686;73.862;2022-09-09T15:23:45;90.68;;;55.00;;
71294;SDS011;59080;31.686;73.862;2022-09-09T15:27:38;83.68;;;49.88;;
71294;SDS011;59080;31.686;73.862;2022-09-09T15:30:38;83.03;;;46.92;;
71294;SDS011;59080;31.686;73.862;2022-09-09T15:33:24;76.60;;;45.58;;
71294;SDS011;59080;31.686;73.862;2022-09-09T15:36:19;73.35;;;45.63;;
71294;SDS011;59080;31.686;73.862;2022-09-09T15:55:36;68.53;;;43.13;;
71294;SDS011;59080;31.686;73.862;2022-09-09T15:58:04;86.20;;;47.70;;
71294;SDS011;59080;31.686;73.862;2022-09-09T16:04:39;78.30;;;47.55;;
71294;SDS011;59080;31.686;73.862;2022-09-09T16:07:48;77.57;;;47.55;;
71294;SDS011;59080;31.686;73.862;2022-09-09T16:11:38;78.43;;;48.70;;
71294;SDS011;59080;31.686;73.862;2022-09-09T16:18:58;66.15;;;42.95;;
71294;SDS011;59080;31.686;73.862;2022-09-09T16:21:33;88.22;;;45.95;;
71294;SDS011;59080;31.686;73.862;2022-09-09T16:24:14;72.18;;;44.17;;
71294;SDS011;59080;31.686;73.862;2022-09-09T16:26:46;76.40;;;44.58;;
71294;SDS011;59080;31.686;73.862;2022-09-09T16:31:45;71.90;;;44.72;;
71294;SDS011;59080;31.686;73.862;2022-09-09T16:34:23;71.03;;;46.40;;
71294;SDS011;59080;31.686;73.862;2022-09-09T16:40:16;72.18;;;44.05;;
71294;SDS011;59080;31.686;73.862;2022-09-09T16:42:46;63.47;;;43.33;;
71294;SDS011;59080;31.686;73.862;2022-09-09T16:45:15;66.22;;;45.85;;
71294;SDS011;59080;31.686;73.862;2022-09-09T16:47:44;65.05;;;43.20;;
71294;SDS011;59080;31.686;73.862;2022-09-09T16:50:15;73.13;;;44.70;;
71294;SDS011;59080;31.686;73.862;2022-09-09T16:52:53;71.10;;;43.28;;
71294;SDS011;59080;31.686;73.862;2022-09-09T16:55:29;63.90;;;42.97;;
71294;SDS011;59080;31.686;73.862;2022-09-09T16:58:05;62.85;;;41.83;;
71294;SDS011;59080;31.686;73.862;2022-09-09T17:00:39;68.22;;;42.92;;
71294;SDS011;59080;31.686;73.862;2022-09-09T17:03:12;65.05;;;42.60;;
71294;SDS011;59080;31.686;73.862;2022-09-09T17:05:43;62.10;;;42.30;;
71294;SDS011;59080;31.686;73.862;2022-09-09T17:08:14;56.15;;;40.63;;
71294;SDS011;59080;31.686;73.862;2022-09-09T17:10:47;69.68;;;40.13;;
71294;SDS011;59080;31.686;73.862;2022-09-09T17:13:28;60.17;;;40.28;;
71294;SDS011;59080;31.686;73.862;2022-09-09T17:15:57;58.58;;;41.90;;
71294;SDS011;59080;31.686;73.862;2022-09-09T17:18:43;65.57;;;42.75;;
71294;SDS011;59080;31.686;73.862;2022-09-09T17:21:17;62.42;;;41.92;;
71294;SDS011;59080;31.686;73.862;2022-09-09T17:23:48;62.47;;;42.28;;
71294;SDS011;59080;31.686;73.862;2022-09-09T17:26:20;62.33;;;41.67;;
71294;SDS011;59080;31.686;73.862;2022-09-09T17:28:56;58.50;;;41.60;;
71294;SDS011;59080;31.686;73.862;2022-09-09T17:31:27;64.10;;;45.13;;
71294;SDS011;59080;31.686;73.862;2022-09-09T17:33:55;69.22;;;43.20;;
71294;SDS011;59080;31.686;73.862;2022-09-09T17:36:26;68.55;;;43.58;;
71294;SDS011;59080;31.686;73.862;2022-09-09T17:39:00;67.22;;;43.72;;
71294;SDS011;59080;31.686;73.862;2022-09-09T17:41:35;68.57;;;43.83;;
71294;SDS011;59080;31.686;73.862;2022-09-09T17:44:08;74.22;;;44.85;;
71294;SDS011;59080;31.686;73.862;2022-09-09T17:46:39;70.82;;;44.00;;
71294;SDS011;59080;31.686;73.862;2022-09-09T17:49:10;62.35;;;42.45;;
71294;SDS011;59080;31.686;73.862;2022-09-09T17:51:43;59.80;;;43.17;;
71294;SDS011;59080;31.686;73.862;2022-09-09T17:54:13;63.75;;;43.88;;
71294;SDS011;59080;31.686;73.862;2022-09-09T17:59:12;64.68;;;44.15;;
71294;SDS011;59080;31.686;73.862;2022-09-09T18:01:42;62.35;;;44.25;;
71294;SDS011;59080;31.686;73.862;2022-09-09T18:04:14;65.30;;;44.50;;
71294;SDS011;59080;31.686;73.862;2022-09-09T18:06:44;66.20;;;43.83;;
71294;SDS011;59080;31.686;73.862;2022-09-09T18:09:16;69.28;;;45.78;;
71294;SDS011;59080;31.686;73.862;2022-09-09T18:11:47;67.28;;;45.72;;
71294;SDS011;59080;31.686;73.862;2022-09-09T18:14:19;66.05;;;45.40;;
71294;SDS011;59080;31.686;73.862;2022-09-09T18:16:50;71.60;;;45.00;;
71294;SDS011;59080;31.686;73.862;2022-09-09T18:19:20;63.90;;;44.90;;
71294;SDS011;59080;31.686;73.862;2022-09-09T18:21:51;68.05;;;43.85;;
71294;SDS011;59080;31.686;73.862;2022-09-09T18:24:22;61.50;;;41.92;;
71294;SDS011;59080;31.686;73.862;2022-09-09T18:26:52;57.55;;;42.08;;
71294;SDS011;59080;31.686;73.862;2022-09-09T18:29:32;67.65;;;42.65;;
71294;SDS011;59080;31.686;73.862;2022-09-09T18:32:00;66.97;;;41.42;;
71294;SDS011;59080;31.686;73.862;2022-09-09T18:34:28;69.68;;;43.83;;
71294;SDS011;59080;31.686;73.862;2022-09-09T18:36:56;66.88;;;43.58;;
71294;SDS011;59080;31.686;73.862;2022-09-09T18:39:25;60.42;;;41.65;;
71294;SDS011;59080;31.686;73.862;2022-09-09T18:41:55;67.50;;;45.40;;
71294;SDS011;59080;31.686;73.862;2022-09-09T18:44:26;65.88;;;43.05;;
71294;SDS011;59080;31.686;73.862;2022-09-09T18:46:55;76.82;;;45.95;;
71294;SDS011;59080;31.686;73.862;2022-09-09T18:49:24;69.80;;;42.72;;
71294;SDS011;59080;31.686;73.862;2022-09-09T18:51:53;72.55;;;43.13;;
71294;SDS011;59080;31.686;73.862;2022-09-09T18:54:23;64.28;;;42.25;;
71294;SDS011;59080;31.686;73.862;2022-09-09T18:56:51;66.88;;;43.42;;
71294;SDS011;59080;31.686;73.862;2022-09-09T18:59:21;64.88;;;42.63;;
71294;SDS011;59080;31.686;73.862;2022-09-09T19:01:51;59.50;;;41.63;;
71294;SDS011;59080;31.686;73.862;2022-09-09T19:04:20;63.90;;;42.42;;
71294;SDS011;59080;31.686;73.862;2022-09-09T19:06:48;63.63;;;42.38;;
71294;SDS011;59080;31.686;73.862;2022-09-09T19:09:23;65.85;;;44.03;;
71294;SDS011;59080;31.686;73.862;2022-09-09T19:11:52;58.35;;;41.88;;
71294;SDS011;59080;31.686;73.862;2022-09-09T19:14:20;67.25;;;42.90;;
71294;SDS011;59080;31.686;73.862;2022-09-09T19:16:48;71.25;;;43.25;;
71294;SDS011;59080;31.686;73.862;2022-09-09T19:19:18;65.20;;;44.20;;
71294;SDS011;59080;31.686;73.862;2022-09-09T19:21:48;63.83;;;42.53;;
71294;SDS011;59080;31.686;73.862;2022-09-09T19:24:17;69.53;;;43.17;;
71294;SDS011;59080;31.686;73.862;2022-09-09T19:26:47;71.28;;;43.03;;
71294;SDS011;59080;31.686;73.862;2022-09-09T19:29:21;69.18;;;44.63;;
71294;SDS011;59080;31.686;73.862;2022-09-09T19:31:51;66.07;;;45.10;;
71294;SDS011;59080;31.686;73.862;2022-09-09T19:34:20;67.85;;;45.88;;
71294;SDS011;59080;31.686;73.862;2022-09-09T19:36:48;67.30;;;45.75;;
71294;SDS011;59080;31.686;73.862;2022-09-09T19:39:17;70.18;;;45.55;;
71294;SDS011;59080;31.686;73.862;2022-09-09T19:41:47;70.15;;;45.20;;
71294;SDS011;59080;31.686;73.862;2022-09-09T19:44:15;70.85;;;45.97;;
71294;SDS011;59080;31.686;73.862;2022-09-09T19:46:44;68.13;;;45.65;;
71294;SDS011;59080;31.686;73.862;2022-09-09T19:49:12;59.97;;;45.20;;
71294;SDS011;59080;31.686;73.862;2022-09-09T19:51:40;67.30;;;46.60;;
71294;SDS011;59080;31.686;73.862;2022-09-09T19:54:10;72.13;;;46.05;;
71294;SDS011;59080;31.686;73.862;2022-09-09T19:56:42;60.55;;;44.83;;
71294;SDS011;59080;31.686;73.862;2022-09-09T19:59:10;69.38;;;45.72;;
71294;SDS011;59080;31.686;73.862;2022-09-09T20:01:40;67.45;;;48.20;;
71294;SDS011;59080;31.686;73.862;2022-09-09T20:04:12;70.90;;;46.67;;
71294;SDS011;59080;31.686;73.862;2022-09-09T20:06:41;70.97;;;46.35;;
71294;SDS011;59080;31.686;73.862;2022-09-09T20:09:11;73.05;;;47.72;;
71294;SDS011;59080;31.686;73.862;2022-09-09T20:11:39;70.93;;;46.58;;
71294;SDS011;59080;31.686;73.862;2022-09-09T20:14:09;75.60;;;48.55;;
71294;SDS011;59080;31.686;73.862;2022-09-09T20:16:38;70.60;;;49.72;;
71294;SDS011;59080;31.686;73.862;2022-09-09T20:19:07;74.75;;;48.05;;
71294;SDS011;59080;31.686;73.862;2022-09-09T20:21:37;70.90;;;49.83;;
71294;SDS011;59080;31.686;73.862;2022-09-09T20:24:06;71.10;;;47.58;;
71294;SDS011;59080;31.686;73.862;2022-09-09T20:26:35;74.30;;;50.53;;
71294;SDS011;59080;31.686;73.862;2022-09-09T20:29:04;76.22;;;48.45;;
71294;SDS011;59080;31.686;73.862;2022-09-09T20:31:34;70.40;;;48.72;;
71294;SDS011;59080;31.686;73.862;2022-09-09T20:34:06;72.20;;;49.35;;
71294;SDS011;59080;31.686;73.862;2022-09-09T20:36:35;75.22;;;48.92;;
71294;SDS011;59080;31.686;73.862;2022-09-09T20:39:15;79.20;;;49.75;;
71294;SDS011;59080;31.686;73.862;2022-09-09T20:41:45;73.32;;;49.13;;
71294;SDS011;59080;31.686;73.862;2022-09-09T20:44:14;75.25;;;51.35;;
71294;SDS011;59080;31.686;73.862;2022-09-09T20:46:44;80.15;;;51.42;;
71294;SDS011;59080;31.686;73.862;2022-09-09T20:49:17;77.10;;;48.70;;
71294;SDS011;59080;31.686;73.862;2022-09-09T20:51:45;84.90;;;49.88;;
71294;SDS011;59080;31.686;73.862;2022-09-09T20:54:18;72.28;;;49.33;;
71294;SDS011;59080;31.686;73.862;2022-09-09T20:56:49;71.93;;;51.28;;
71294;SDS011;59080;31.686;73.862;2022-09-09T20:59:20;108.68;;;51.35;;
71294;SDS011;59080;31.686;73.862;2022-09-09T21:01:48;70.03;;;51.40;;
71294;SDS011;59080;31.686;73.862;2022-09-09T21:04:18;74.43;;;53.10;;
71294;SDS011;59080;31.686;73.862;2022-09-09T21:06:47;78.65;;;51.95;;
71294;SDS011;59080;31.686;73.862;2022-09-09T21:09:17;71.88;;;50.63;;
71294;SDS011;59080;31.686;73.862;2022-09-09T21:11:46;86.47;;;51.83;;
71294;SDS011;59080;31.686;73.862;2022-09-09T21:14:13;80.50;;;53.40;;
71294;SDS011;59080;31.686;73.862;2022-09-09T21:16:42;76.50;;;52.53;;
71294;SDS011;59080;31.686;73.862;2022-09-09T21:19:10;75.85;;;52.42;;
71294;SDS011;59080;31.686;73.862;2022-09-09T21:21:38;81.45;;;55.22;;
71294;SDS011;59080;31.686;73.862;2022-09-09T21:24:06;73.80;;;52.55;;
71294;SDS011;59080;31.686;73.862;2022-09-09T21:26:35;76.88;;;56.03;;
71294;SDS011;59080;31.686;73.862;2022-09-09T21:29:02;89.93;;;56.75;;
71294;SDS011;59080;31.686;73.862;2022-09-09T21:31:31;86.82;;;57.63;;
71294;SDS011;59080;31.686;73.862;2022-09-09T21:33:59;96.97;;;61.90;;
71294;SDS011;59080;31.686;73.862;2022-09-09T21:36:26;92.05;;;61.97;;
71294;SDS011;59080;31.686;73.862;2022-09-09T21:38:55;97.38;;;63.40;;
71294;SDS011;59080;31.686;73.862;2022-09-09T21:41:24;96.22;;;65.63;;
71294;SDS011;59080;31.686;73.862;2022-09-09T21:43:52;98.75;;;65.75;;
71294;SDS011;59080;31.686;73.862;2022-09-09T21:46:20;104.18;;;67.15;;
71294;SDS011;59080;31.686;73.862;2022-09-09T21:48:49;112.05;;;70.35;;
71294;SDS011;59080;31.686;73.862;2022-09-09T21:51:16;108.78;;;68.00;;
71294;SDS011;59080;31.686;73.862;2022-09-09T21:53:45;95.68;;;65.85;;
71294;SDS011;59080;31.686;73.862;2022-09-09T21:56:14;96.85;;;63.75;;
71294;SDS011;59080;31.686;73.862;2022-09-09T21:58:43;96.03;;;62.65;;
71294;SDS011;59080;31.686;73.862;2022-09-09T22:01:13;92.28;;;62.92;;
71294;SDS011;59080;31.686;73.862;2022-09-09T22:03:41;94.45;;;62.60;;
71294;SDS011;59080;31.686;73.862;2022-09-09T22:06:11;98.32;;;64.53;;
71294;SDS011;59080;31.686;73.862;2022-09-09T22:08:39;88.35;;;63.28;;
71294;SDS011;59080;31.686;73.862;2022-09-09T22:11:09;93.50;;;62.25;;
71294;SDS011;59080;31.686;73.862;2022-09-09T22:13:38;94.93;;;65.47;;
71294;SDS011;59080;31.686;73.862;2022-09-09T22:16:07;95.78;;;65.93;;
71294;SDS011;59080;31.686;73.862;2022-09-09T22:18:36;96.78;;;65.32;;
71294;SDS011;59080;31.686;73.862;2022-09-09T22:21:13;97.22;;;61.67;;
71294;SDS011;59080;31.686;73.862;2022-09-09T22:23:42;85.45;;;60.67;;
71294;SDS011;59080;31.686;73.862;2022-09-09T22:26:13;83.65;;;59.42;;
71294;SDS011;59080;31.686;73.862;2022-09-09T22:28:41;95.40;;;62.90;;
71294;SDS011;59080;31.686;73.862;2022-09-09T22:31:09;93.00;;;63.85;;
71294;SDS011;59080;31.686;73.862;2022-09-09T22:33:38;97.28;;;64.25;;
71294;SDS011;59080;31.686;73.862;2022-09-09T22:36:06;91.40;;;62.78;;
71294;SDS011;59080;31.686;73.862;2022-09-09T22:38:34;92.78;;;64.78;;
71294;SDS011;59080;31.686;73.862;2022-09-09T22:41:03;91.47;;;63.05;;
71294;SDS011;59080;31.686;73.862;2022-09-09T22:43:32;97.40;;;61.65;;
71294;SDS011;59080;31.686;73.862;2022-09-09T22:46:02;90.72;;;61.55;;
71294;SDS011;59080;31.686;73.862;2022-09-09T22:48:33;89.07;;;61.40;;
71294;SDS011;59080;31.686;73.862;2022-09-09T22:51:02;83.25;;;59.58;;
71294;SDS011;59080;31.686;73.862;2022-09-09T22:53:30;89.18;;;60.30;;
71294;SDS011;59080;31.686;73.862;2022-09-09T22:56:00;86.57;;;59.28;;
71294;SDS011;59080;31.686;73.862;2022-09-09T22:58:28;85.28;;;60.25;;
71294;SDS011;59080;31.686;73.862;2022-09-09T23:00:57;87.65;;;60.33;;
71294;SDS011;59080;31.686;73.862;2022-09-09T23:03:29;91.47;;;61.55;;
71294;SDS011;59080;31.686;73.862;2022-09-09T23:06:00;89.53;;;62.17;;
71294;SDS011;59080;31.686;73.862;2022-09-09T23:08:36;94.00;;;66.53;;
71294;SDS011;59080;31.686;73.862;2022-09-09T23:11:06;87.22;;;62.30;;
71294;SDS011;59080;31.686;73.862;2022-09-09T23:13:35;88.97;;;63.80;;
71294;SDS011;59080;31.686;73.862;2022-09-09T23:16:13;90.05;;;64.85;;
71294;SDS011;59080;31.686;73.862;2022-09-09T23:18:41;93.38;;;63.55;;
71294;SDS011;59080;31.686;73.862;2022-09-09T23:21:11;99.85;;;65.53;;
71294;SDS011;59080;31.686;73.862;2022-09-09T23:23:40;94.35;;;64.30;;
71294;SDS011;59080;31.686;73.862;2022-09-09T23:26:12;87.60;;;65.03;;
71294;SDS011;59080;31.686;73.862;2022-09-09T23:28:44;90.97;;;63.70;;
71294;SDS011;59080;31.686;73.862;2022-09-09T23:31:14;92.25;;;64.47;;
71294;SDS011;59080;31.686;73.862;2022-09-09T23:33:43;99.57;;;67.68;;
71294;SDS011;59080;31.686;73.862;2022-09-09T23:36:12;99.50;;;64.53;;
71294;SDS011;59080;31.686;73.862;2022-09-09T23:38:41;96.22;;;66.03;;
71294;SDS011;59080;31.686;73.862;2022-09-09T23:41:11;102.97;;;69.38;;
71294;SDS011;59080;31.686;73.862;2022-09-09T23:43:39;103.65;;;70.72;;
71294;SDS011;59080;31.686;73.862;2022-09-09T23:46:10;105.03;;;72.10;;
71294;SDS011;59080;31.686;73.862;2022-09-09T23:48:42;107.00;;;71.63;;
71294;SDS011;59080;31.686;73.862;2022-09-09T23:51:10;109.60;;;73.30;;
71294;SDS011;59080;31.686;73.862;2022-09-09T23:53:46;108.40;;;71.90;;
71294;SDS011;59080;31.686;73.862;2022-09-09T23:56:17;100.47;;;68.25;;
71294;SDS011;59080;31.686;73.862;2022-09-09T23:58:46;102.55;;;67.70;;
